Huggers Landing, Alabama
Current Conditions -  °F | °C
As of 8:15 AM on Thursday 27 Nov 2014 (Local Time) from KJKA Reporting Station
Clear Clear  
Wind Chill: 51°   Ceiling: Unl
Heat Index: 51°   Visibility: 10mi
Dew Point: 38°   Wind: 8mph
Humidity: 61%   Direction: 330°NNW
Pressure: 30.37"   Gusts: NA
Location:  30.3794°N, 87.7151°W
Report Text: KJKA 271415Z AUTO 33007KT 10SM CLR 11/03 A3037 RMK AO2 T01050032
Loading
Personal Weather Stations






























Interactive Weather Map New forecast layout! Learn more

10-Day Weather Forecast

Advertisements
Track Severe Weather on mobile